EWG61V EDDH-EDDL
Flight info
| Callsign | EWG61V |
|---|---|
| Flight time | N/A |
| Altitude | 24000 |
| Route | IDEKO7G/33 IDEKO N850 ROBEG DCT DENOL T851 HALME HALME1A |
| Aircraft | A319/M-SDE3FGHIRWY/LB1 |
Departure
| Time | 2026-05-07 18:39 |
|---|---|
| Airport | Hamburg Helmut Schmidt Airport (EDDH) |
Arrival
| Time | N/A |
|---|---|
| Airport | Düsseldorf Airport (EDDL) |
| Time | Latitude | Longitude | Altitude | Speed | Heading |
|---|---|---|---|---|---|
| 2026-05-07 18:01 | 53.63178 | 9.99928 | 45 ft | 0 kts | 319° |
| 2026-05-07 18:32 | 53.63175 | 9.99932 | 45 ft | 3 kts | 319° |
| 2026-05-07 18:32 | 53.63160 | 9.99966 | 43 ft | 4 kts | 281° |
| 2026-05-07 18:32 | 53.63164 | 10.00001 | 44 ft | 1 kts | 231° |
| 2026-05-07 18:33 | 53.63167 | 10.00006 | 44 ft | 0 kts | 231° |
| 2026-05-07 18:36 | 53.63159 | 9.99991 | 44 ft | 5 kts | 231° |
| 2026-05-07 18:36 | 53.63122 | 9.99916 | 45 ft | 12 kts | 227° |
| 2026-05-07 18:37 | 53.63035 | 9.99925 | 45 ft | 15 kts | 145° |
| 2026-05-07 18:37 | 53.62979 | 9.99977 | 46 ft | 0 kts | 154° |
| 2026-05-07 18:37 | 53.62963 | 9.99989 | 46 ft | 5 kts | 160° |
| 2026-05-07 18:37 | 53.62915 | 9.99981 | 46 ft | 9 kts | 220° |
| 2026-05-07 18:38 | 53.62880 | 9.99865 | 44 ft | 14 kts | 250° |
| 2026-05-07 18:38 | 53.62880 | 9.99734 | 47 ft | 0 kts | 340° |
| 2026-05-07 18:38 | 53.62943 | 9.99684 | 47 ft | 47 kts | 331° |
| 2026-05-07 18:39 | 53.63537 | 9.99159 | 52 ft | 139 kts | 333° |
| 2026-05-07 18:39 | 53.64383 | 9.98351 | 850 ft | 143 kts | 334° |
| 2026-05-07 18:39 | 53.65272 | 9.97501 | 1863 ft | 150 kts | 335° |
| 2026-05-07 18:39 | 53.66189 | 9.96605 | 2880 ft | 152 kts | 333° |
| 2026-05-07 18:40 | 53.67124 | 9.95738 | 3695 ft | 159 kts | 339° |
| 2026-05-07 18:40 | 53.68196 | 9.94946 | 4341 ft | 177 kts | 341° |
| 2026-05-07 18:40 | 53.69385 | 9.94071 | 4997 ft | 196 kts | 339° |
| 2026-05-07 18:40 | 53.70631 | 9.92853 | 5571 ft | 222 kts | 316° |
| 2026-05-07 18:41 | 53.71381 | 9.90536 | 6542 ft | 231 kts | 280° |
| 2026-05-07 18:41 | 53.71262 | 9.87846 | 7683 ft | 234 kts | 253° |
| 2026-05-07 18:41 | 53.70731 | 9.85183 | 8519 ft | 252 kts | 250° |
| 2026-05-07 18:41 | 53.70106 | 9.82279 | 9220 ft | 275 kts | 250° |
| 2026-05-07 18:42 | 53.69446 | 9.79153 | 9900 ft | 288 kts | 250° |
| 2026-05-07 18:42 | 53.68783 | 9.75914 | 10429 ft | 300 kts | 251° |
| 2026-05-07 18:42 | 53.68091 | 9.72449 | 10957 ft | 323 kts | 251° |
| 2026-05-07 18:42 | 53.67362 | 9.68747 | 11624 ft | 338 kts | 251° |
| 2026-05-07 18:43 | 53.66620 | 9.64968 | 12675 ft | 341 kts | 251° |
| 2026-05-07 18:43 | 53.65552 | 9.61390 | 13695 ft | 346 kts | 232° |
| 2026-05-07 18:43 | 53.63766 | 9.58658 | 14600 ft | 352 kts | 211° |
| 2026-05-07 18:43 | 53.61510 | 9.57194 | 15464 ft | 357 kts | 191° |